sensor_id;sensor_type;location;lat;lon;timestamp;pressure;altitude;pressure_sealevel;temperature;humidity
63019;BME280;49105;46.046;10.760;2023-03-31T00:01:30;95638.16;;;9.25;62.75
63019;BME280;49105;46.046;10.760;2023-03-31T00:04:01;95639.22;;;9.24;62.90
63019;BME280;49105;46.046;10.760;2023-03-31T00:06:34;95632.09;;;9.29;62.98
63019;BME280;49105;46.046;10.760;2023-03-31T00:09:10;95630.50;;;9.28;62.60
63019;BME280;49105;46.046;10.760;2023-03-31T00:11:50;95628.94;;;9.27;62.84
63019;BME280;49105;46.046;10.760;2023-03-31T00:14:22;95633.44;;;9.27;62.72
63019;BME280;49105;46.046;10.760;2023-03-31T00:16:50;95637.66;;;9.28;63.05
63019;BME280;49105;46.046;10.760;2023-03-31T00:19:46;95630.50;;;9.28;62.98
63019;BME280;49105;46.046;10.760;2023-03-31T00:22:24;95631.06;;;9.30;62.74
63019;BME280;49105;46.046;10.760;2023-03-31T00:24:52;95627.63;;;9.35;62.75
63019;BME280;49105;46.046;10.760;2023-03-31T00:27:23;95625.50;;;9.32;62.53
63019;BME280;49105;46.046;10.760;2023-03-31T00:29:49;95618.91;;;9.34;62.46
63019;BME280;49105;46.046;10.760;2023-03-31T00:32:17;95622.59;;;9.43;62.89
63019;BME280;49105;46.046;10.760;2023-03-31T00:34:52;95617.81;;;9.45;62.09
63019;BME280;49105;46.046;10.760;2023-03-31T00:37:17;95622.59;;;9.43;62.20
63019;BME280;49105;46.046;10.760;2023-03-31T00:39:49;95609.41;;;9.38;63.04
63019;BME280;49105;46.046;10.760;2023-03-31T00:42:17;95607.00;;;9.42;62.86
63019;BME280;49105;46.046;10.760;2023-03-31T00:45:22;95603.03;;;9.50;62.72
63019;BME280;49105;46.046;10.760;2023-03-31T00:48:03;95600.66;;;9.53;62.66
63019;BME280;49105;46.046;10.760;2023-03-31T00:50:52;95595.91;;;9.45;62.79
63019;BME280;49105;46.046;10.760;2023-03-31T00:53:28;95588.78;;;9.35;63.21
63019;BME280;49105;46.046;10.760;2023-03-31T00:56:07;95579.00;;;9.20;63.15
63019;BME280;49105;46.046;10.760;2023-03-31T00:58:33;95581.94;;;9.14;62.90
63019;BME280;49105;46.046;10.760;2023-03-31T01:01:00;95585.09;;;9.16;63.23
63019;BME280;49105;46.046;10.760;2023-03-31T01:03:33;95575.06;;;9.23;63.35
63019;BME280;49105;46.046;10.760;2023-03-31T01:06:04;95572.94;;;9.30;63.43
63019;BME280;49105;46.046;10.760;2023-03-31T01:08:31;95558.94;;;9.35;62.53
63019;BME280;49105;46.046;10.760;2023-03-31T01:10:59;95562.13;;;9.32;63.19
63019;BME280;49105;46.046;10.760;2023-03-31T01:13:30;95564.22;;;9.25;63.25
63019;BME280;49105;46.046;10.760;2023-03-31T01:15:59;95557.88;;;9.26;62.93
63019;BME280;49105;46.046;10.760;2023-03-31T01:18:31;95559.47;;;9.27;63.26
63019;BME280;49105;46.046;10.760;2023-03-31T01:24:07;95556.56;;;9.23;63.52
63019;BME280;49105;46.046;10.760;2023-03-31T01:27:05;95552.34;;;9.27;62.95
63019;BME280;49105;46.046;10.760;2023-03-31T01:46:57;95543.09;;;9.25;63.09
63019;BME280;49105;46.046;10.760;2023-03-31T01:49:38;95537.56;;;9.26;63.00
63019;BME280;49105;46.046;10.760;2023-03-31T01:54:48;95527.50;;;9.33;63.24
63019;BME280;49105;46.046;10.760;2023-03-31T02:00:29;95514.31;;;9.23;62.89
63019;BME280;49105;46.046;10.760;2023-03-31T02:03:10;95514.34;;;9.08;63.36
63019;BME280;49105;46.046;10.760;2023-03-31T02:05:52;95515.13;;;9.03;63.73
63019;BME280;49105;46.046;10.760;2023-03-31T02:08:25;95515.41;;;9.02;63.35
63019;BME280;49105;46.046;10.760;2023-03-31T02:10:54;95509.59;;;8.94;63.82
63019;BME280;49105;46.046;10.760;2023-03-31T02:13:21;95498.50;;;8.92;63.51
63019;BME280;49105;46.046;10.760;2023-03-31T02:15:53;95495.06;;;8.92;63.93
63019;BME280;49105;46.046;10.760;2023-03-31T02:18:22;95492.72;;;8.90;63.52
63019;BME280;49105;46.046;10.760;2023-03-31T02:20:53;95491.91;;;8.95;63.83
63019;BME280;49105;46.046;10.760;2023-03-31T02:23:24;95489.81;;;8.97;63.31
63019;BME280;49105;46.046;10.760;2023-03-31T02:26:03;95493.22;;;8.92;63.54
63019;BME280;49105;46.046;10.760;2023-03-31T02:28:31;95499.84;;;8.85;63.71
63019;BME280;49105;46.046;10.760;2023-03-31T02:31:09;95490.59;;;8.82;64.01
63019;BME280;49105;46.046;10.760;2023-03-31T02:33:40;95489.00;;;8.86;63.86
63019;BME280;49105;46.046;10.760;2023-03-31T02:36:08;95490.06;;;8.85;63.77
63019;BME280;49105;46.046;10.760;2023-03-31T02:38:43;95487.16;;;8.87;64.02
63019;BME280;49105;46.046;10.760;2023-03-31T02:41:13;95485.06;;;8.89;63.46
63019;BME280;49105;46.046;10.760;2023-03-31T02:43:48;95481.38;;;8.90;63.48
63019;BME280;49105;46.046;10.760;2023-03-31T02:46:20;95480.03;;;8.92;63.90
63019;BME280;49105;46.046;10.760;2023-03-31T02:48:57;95481.63;;;8.93;63.64
63019;BME280;49105;46.046;10.760;2023-03-31T03:00:13;95481.63;;;8.83;63.86
63019;BME280;49105;46.046;10.760;2023-03-31T03:12:17;95481.34;;;8.49;64.38
63019;BME280;49105;46.046;10.760;2023-03-31T03:15:04;95479.22;;;8.51;64.39
63019;BME280;49105;46.046;10.760;2023-03-31T03:17:38;95477.66;;;8.50;64.50
63019;BME280;49105;46.046;10.760;2023-03-31T03:20:14;95479.78;;;8.48;64.40
63019;BME280;49105;46.046;10.760;2023-03-31T03:22:41;95482.16;;;8.50;64.28
63019;BME280;49105;46.046;10.760;2023-03-31T03:25:09;95479.00;;;8.53;64.54
63019;BME280;49105;46.046;10.760;2023-03-31T03:27:41;95463.16;;;8.58;64.13
63019;BME280;49105;46.046;10.760;2023-03-31T03:30:16;95455.25;;;8.63;63.99
63019;BME280;49105;46.046;10.760;2023-03-31T03:32:50;95449.72;;;8.64;64.29
63019;BME280;49105;46.046;10.760;2023-03-31T03:35:41;95444.16;;;8.61;64.26
63019;BME280;49105;46.046;10.760;2023-03-31T03:38:07;95446.00;;;8.55;64.14
63019;BME280;49105;46.046;10.760;2023-03-31T03:40:32;95440.47;;;8.41;64.96
63019;BME280;49105;46.046;10.760;2023-03-31T03:43:07;95439.91;;;8.29;65.31
63019;BME280;49105;46.046;10.760;2023-03-31T03:45:38;95438.59;;;8.32;65.09
63019;BME280;49105;46.046;10.760;2023-03-31T03:48:17;95438.63;;;8.42;64.55
63019;BME280;49105;46.046;10.760;2023-03-31T03:50:52;95451.78;;;8.47;64.55
63019;BME280;49105;46.046;10.760;2023-03-31T03:53:27;95441.25;;;8.47;64.80
63019;BME280;49105;46.046;10.760;2023-03-31T03:56:02;95445.22;;;8.50;64.69
63019;BME280;49105;46.046;10.760;2023-03-31T03:58:28;95442.56;;;8.55;64.59
63019;BME280;49105;46.046;10.760;2023-03-31T04:01:02;95452.34;;;8.64;64.11
63019;BME280;49105;46.046;10.760;2023-03-31T04:03:34;95442.59;;;8.65;64.11
63019;BME280;49105;46.046;10.760;2023-03-31T04:06:00;95438.09;;;8.55;64.49
63019;BME280;49105;46.046;10.760;2023-03-31T04:08:25;95426.25;;;8.53;64.51
63019;BME280;49105;46.046;10.760;2023-03-31T04:10:51;95438.38;;;8.43;64.78
63019;BME280;49105;46.046;10.760;2023-03-31T04:13:18;95440.72;;;8.45;64.59
63019;BME280;49105;46.046;10.760;2023-03-31T04:15:44;95424.13;;;8.39;64.90
63019;BME280;49105;46.046;10.760;2023-03-31T04:18:19;95442.03;;;8.37;64.79
63019;BME280;49105;46.046;10.760;2023-03-31T04:20:53;95440.44;;;8.36;64.79
63019;BME280;49105;46.046;10.760;2023-03-31T04:23:31;95436.78;;;8.37;64.79
63019;BME280;49105;46.046;10.760;2023-03-31T04:25:57;95427.25;;;8.36;64.84
63019;BME280;49105;46.046;10.760;2023-03-31T04:28:29;95422.50;;;8.33;64.96
63019;BME280;49105;46.046;10.760;2023-03-31T04:31:03;95421.44;;;8.34;64.95
63019;BME280;49105;46.046;10.760;2023-03-31T04:33:31;95419.88;;;8.38;64.85
63019;BME280;49105;46.046;10.760;2023-03-31T04:36:07;95415.44;;;8.44;65.05
63019;BME280;49105;46.046;10.760;2023-03-31T04:38:46;95416.72;;;8.47;64.93
63019;BME280;49105;46.046;10.760;2023-03-31T04:41:17;95414.09;;;8.47;64.80
63019;BME280;49105;46.046;10.760;2023-03-31T04:43:42;95426.50;;;8.41;64.76
63019;BME280;49105;46.046;10.760;2023-03-31T04:46:08;95423.84;;;8.36;65.14
63019;BME280;49105;46.046;10.760;2023-03-31T04:48:34;95423.59;;;8.37;65.01
63019;BME280;49105;46.046;10.760;2023-03-31T04:51:00;95428.34;;;8.40;65.00
63019;BME280;49105;46.046;10.760;2023-03-31T04:53:28;95424.38;;;8.43;64.91
63019;BME280;49105;46.046;10.760;2023-03-31T04:56:01;95413.03;;;8.42;64.82
63019;BME280;49105;46.046;10.760;2023-03-31T04:58:26;95417.00;;;8.40;64.66
63019;BME280;49105;46.046;10.760;2023-03-31T05:01:11;95409.38;;;8.43;64.72
63019;BME280;49105;46.046;10.760;2023-03-31T05:03:51;95410.94;;;8.44;64.82
63019;BME280;49105;46.046;10.760;2023-03-31T05:06:22;95394.59;;;8.48;64.64
63019;BME280;49105;46.046;10.760;2023-03-31T05:08:59;95395.38;;;8.48;64.85
63019;BME280;49105;46.046;10.760;2023-03-31T05:14:53;95400.41;;;8.39;64.96
63019;BME280;49105;46.046;10.760;2023-03-31T05:17:19;95398.50;;;8.35;65.19
63019;BME280;49105;46.046;10.760;2023-03-31T05:19:45;95404.59;;;8.35;65.04
63019;BME280;49105;46.046;10.760;2023-03-31T05:22:20;95409.63;;;8.37;65.09
63019;BME280;49105;46.046;10.760;2023-03-31T05:24:51;95408.78;;;8.36;65.13
63019;BME280;49105;46.046;10.760;2023-03-31T05:27:25;95400.13;;;8.41;65.27
63019;BME280;49105;46.046;10.760;2023-03-31T05:29:51;95378.50;;;8.44;65.02
63019;BME280;49105;46.046;10.760;2023-03-31T05:32:26;95384.56;;;8.44;64.78
63019;BME280;49105;46.046;10.760;2023-03-31T05:34:54;95371.38;;;8.44;65.07
63019;BME280;49105;46.046;10.760;2023-03-31T05:37:23;95369.78;;;8.49;65.13
63019;BME280;49105;46.046;10.760;2023-03-31T05:39:55;95369.78;;;8.49;64.67
63019;BME280;49105;46.046;10.760;2023-03-31T05:42:23;95368.22;;;8.53;64.77
63019;BME280;49105;46.046;10.760;2023-03-31T05:44:49;95368.72;;;8.55;64.80
63019;BME280;49105;46.046;10.760;2023-03-31T05:47:24;95376.13;;;8.53;65.13
63019;BME280;49105;46.046;10.760;2023-03-31T05:49:49;95370.06;;;8.52;64.83
63019;BME280;49105;46.046;10.760;2023-03-31T05:52:27;95353.19;;;8.48;65.20
63019;BME280;49105;46.046;10.760;2023-03-31T05:54:53;95346.06;;;8.43;65.59
63019;BME280;49105;46.046;10.760;2023-03-31T05:57:24;95347.13;;;8.48;65.49
63019;BME280;49105;46.046;10.760;2023-03-31T06:00:08;95360.03;;;8.54;65.15
63019;BME280;49105;46.046;10.760;2023-03-31T06:02:36;95351.31;;;8.59;65.43
63019;BME280;49105;46.046;10.760;2023-03-31T06:05:10;95342.34;;;8.65;65.35
63019;BME280;49105;46.046;10.760;2023-03-31T06:07:42;95331.25;;;8.73;64.88
63019;BME280;49105;46.046;10.760;2023-03-31T06:10:17;95325.69;;;8.75;64.45
63019;BME280;49105;46.046;10.760;2023-03-31T06:12:42;95332.78;;;8.84;64.98
63019;BME280;49105;46.046;10.760;2023-03-31T06:15:17;95340.13;;;8.92;64.17
63019;BME280;49105;46.046;10.760;2023-03-31T06:17:54;95335.13;;;8.91;64.45
63019;BME280;49105;46.046;10.760;2023-03-31T06:20:20;95337.00;;;8.85;64.87
63019;BME280;49105;46.046;10.760;2023-03-31T06:22:54;95344.41;;;8.78;64.76
63019;BME280;49105;46.046;10.760;2023-03-31T06:25:20;95337.56;;;8.77;65.06
63019;BME280;49105;46.046;10.760;2023-03-31T06:27:45;95335.69;;;8.83;64.86
63019;BME280;49105;46.046;10.760;2023-03-31T06:30:17;95338.06;;;8.89;64.89
63019;BME280;49105;46.046;10.760;2023-03-31T06:32:51;95320.88;;;8.92;64.66
63019;BME280;49105;46.046;10.760;2023-03-31T06:35:20;95312.16;;;8.97;64.64
63019;BME280;49105;46.046;10.760;2023-03-31T06:37:45;95309.00;;;8.94;64.75
63019;BME280;49105;46.046;10.760;2023-03-31T06:40:11;95304.22;;;9.02;64.55
63019;BME280;49105;46.046;10.760;2023-03-31T06:42:49;95302.09;;;9.04;64.68
63019;BME280;49105;46.046;10.760;2023-03-31T06:45:17;95304.75;;;9.04;64.52
63019;BME280;49105;46.046;10.760;2023-03-31T06:47:43;95301.84;;;9.00;64.55
63019;BME280;49105;46.046;10.760;2023-03-31T06:50:23;95304.50;;;8.95;64.66
63019;BME280;49105;46.046;10.760;2023-03-31T06:53:01;95305.81;;;8.92;64.84
63019;BME280;49105;46.046;10.760;2023-03-31T06:55:26;95309.53;;;8.91;64.74
63019;BME280;49105;46.046;10.760;2023-03-31T06:57:55;95312.97;;;8.97;64.87
63019;BME280;49105;46.046;10.760;2023-03-31T07:00:26;95291.28;;;9.00;64.79
63019;BME280;49105;46.046;10.760;2023-03-31T07:03:04;95303.44;;;9.01;65.50
63019;BME280;49105;46.046;10.760;2023-03-31T07:05:33;95294.72;;;9.06;65.18
63019;BME280;49105;46.046;10.760;2023-03-31T07:08:08;95282.00;;;9.18;64.83
63019;BME280;49105;46.046;10.760;2023-03-31T07:10:43;95283.81;;;9.23;64.74
63019;BME280;49105;46.046;10.760;2023-03-31T07:13:17;95289.88;;;9.23;64.87
63019;BME280;49105;46.046;10.760;2023-03-31T07:15:52;95282.19;;;9.27;64.47
63019;BME280;49105;46.046;10.760;2023-03-31T07:18:23;95276.09;;;9.31;64.88
63019;BME280;49105;46.046;10.760;2023-03-31T07:20:53;95264.72;;;9.36;64.88
63019;BME280;49105;46.046;10.760;2023-03-31T07:23:24;95267.06;;;9.37;64.27
63019;BME280;49105;46.046;10.760;2023-03-31T07:25:59;95264.97;;;9.39;64.67
63019;BME280;49105;46.046;10.760;2023-03-31T07:28:35;95259.69;;;9.39;64.79
63019;BME280;49105;46.046;10.760;2023-03-31T07:31:11;95270.00;;;9.36;64.52
63019;BME280;49105;46.046;10.760;2023-03-31T07:33:43;95273.19;;;9.33;64.94
63019;BME280;49105;46.046;10.760;2023-03-31T07:36:19;95286.13;;;9.29;64.94
63019;BME280;49105;46.046;10.760;2023-03-31T07:38:45;95302.00;;;9.24;64.71
63019;BME280;49105;46.046;10.760;2023-03-31T07:41:15;95285.88;;;9.31;64.68
63019;BME280;49105;46.046;10.760;2023-03-31T07:43:47;95285.03;;;9.40;64.25
63019;BME280;49105;46.046;10.760;2023-03-31T07:46:22;95284.47;;;9.43;64.20
63019;BME280;49105;46.046;10.760;2023-03-31T07:48:48;95277.09;;;9.40;65.19
63019;BME280;49105;46.046;10.760;2023-03-31T07:51:23;95269.16;;;9.40;65.58
63019;BME280;49105;46.046;10.760;2023-03-31T07:53:55;95271.78;;;9.45;65.06
63019;BME280;49105;46.046;10.760;2023-03-31T07:56:22;95258.00;;;9.54;64.77
63019;BME280;49105;46.046;10.760;2023-03-31T07:58:59;95258.47;;;9.61;65.15
63019;BME280;49105;46.046;10.760;2023-03-31T08:01:37;95252.09;;;9.67;64.99
63019;BME280;49105;46.046;10.760;2023-03-31T08:04:11;95252.88;;;9.67;65.12
63019;BME280;49105;46.046;10.760;2023-03-31T08:06:38;95242.56;;;9.71;64.78
63019;BME280;49105;46.046;10.760;2023-03-31T08:09:04;95238.81;;;9.77;64.26
63019;BME280;49105;46.046;10.760;2023-03-31T08:11:38;95238.41;;;9.94;65.00
63019;BME280;49105;46.046;10.760;2023-03-31T08:14:03;95237.47;;;10.09;64.41
63019;BME280;49105;46.046;10.760;2023-03-31T08:16:35;95232.38;;;10.17;63.89
63019;BME280;49105;46.046;10.760;2023-03-31T08:19:00;95215.94;;;10.26;64.26
63019;BME280;49105;46.046;10.760;2023-03-31T08:21:27;95218.28;;;10.27;64.08
63019;BME280;49105;46.046;10.760;2023-03-31T08:23:54;95222.00;;;10.26;64.30
63019;BME280;49105;46.046;10.760;2023-03-31T08:29:41;95199.94;;;10.36;63.80
63019;BME280;49105;46.046;10.760;2023-03-31T08:32:15;95193.19;;;10.49;63.72
63019;BME280;49105;46.046;10.760;2023-03-31T08:34:44;95195.09;;;10.67;63.66
63019;BME280;49105;46.046;10.760;2023-03-31T08:37:16;95194.53;;;10.70;63.97
63019;BME280;49105;46.046;10.760;2023-03-31T08:39:51;95191.69;;;10.85;63.98
63019;BME280;49105;46.046;10.760;2023-03-31T08:42:37;95191.78;;;10.99;63.68
63019;BME280;49105;46.046;10.760;2023-03-31T08:47:46;95188.63;;;11.16;63.58
63019;BME280;49105;46.046;10.760;2023-03-31T08:50:26;95189.25;;;11.27;63.41
63019;BME280;49105;46.046;10.760;2023-03-31T08:55:48;95184.09;;;11.35;63.14
63019;BME280;49105;46.046;10.760;2023-03-31T08:58:39;95185.25;;;11.29;63.09
63019;BME280;49105;46.046;10.760;2023-03-31T09:15:21;95168.59;;;10.91;64.07
63019;BME280;49105;46.046;10.760;2023-03-31T09:17:52;95165.94;;;10.91;63.82
63019;BME280;49105;46.046;10.760;2023-03-31T09:20:38;95155.06;;;10.92;64.03
63019;BME280;49105;46.046;10.760;2023-03-31T09:26:35;95142.19;;;11.05;63.56
63019;BME280;49105;46.046;10.760;2023-03-31T09:29:09;95128.44;;;11.03;63.70
63019;BME280;49105;46.046;10.760;2023-03-31T09:31:40;95124.38;;;10.91;63.82
63019;BME280;49105;46.046;10.760;2023-03-31T09:34:15;95124.78;;;10.80;63.80
63019;BME280;49105;46.046;10.760;2023-03-31T09:36:43;95120.91;;;10.72;64.43
63019;BME280;49105;46.046;10.760;2023-03-31T09:39:21;95125.72;;;10.70;64.84
63019;BME280;49105;46.046;10.760;2023-03-31T09:41:48;95119.84;;;10.73;64.57
63019;BME280;49105;46.046;10.760;2023-03-31T09:44:27;95129.88;;;10.76;64.30
63019;BME280;49105;46.046;10.760;2023-03-31T09:46:59;95120.28;;;10.80;64.39
63019;BME280;49105;46.046;10.760;2023-03-31T09:49:34;95114.41;;;10.83;63.86
63019;BME280;49105;46.046;10.760;2023-03-31T09:52:31;95103.25;;;10.86;63.92
63019;BME280;49105;46.046;10.760;2023-03-31T09:54:59;95109.19;;;10.78;64.35
63019;BME280;49105;46.046;10.760;2023-03-31T09:57:38;95109.78;;;10.75;64.36
63019;BME280;49105;46.046;10.760;2023-03-31T10:00:19;95106.59;;;10.73;64.28
63019;BME280;49105;46.046;10.760;2023-03-31T10:05:50;95085.09;;;10.80;64.70
63019;BME280;49105;46.046;10.760;2023-03-31T10:08:28;95095.97;;;10.78;64.41
63019;BME280;49105;46.046;10.760;2023-03-31T10:16:19;95091.38;;;10.65;64.72
63019;BME280;49105;46.046;10.760;2023-03-31T10:18:46;95079.28;;;10.59;64.27
63019;BME280;49105;46.046;10.760;2023-03-31T10:21:23;95080.38;;;10.58;64.83
63019;BME280;49105;46.046;10.760;2023-03-31T10:23:59;95074.47;;;10.61;64.92
63019;BME280;49105;46.046;10.760;2023-03-31T10:26:35;95081.06;;;10.63;64.71
63019;BME280;49105;46.046;10.760;2023-03-31T10:29:12;95090.59;;;10.64;64.86
63019;BME280;49105;46.046;10.760;2023-03-31T10:31:45;95090.81;;;10.68;64.55
63019;BME280;49105;46.046;10.760;2023-03-31T10:34:21;95087.84;;;10.69;64.39
63019;BME280;49105;46.046;10.760;2023-03-31T10:36:57;95081.56;;;10.65;64.70
63019;BME280;49105;46.046;10.760;2023-03-31T10:39:30;95071.06;;;10.60;64.65
63019;BME280;49105;46.046;10.760;2023-03-31T10:42:06;95073.47;;;10.57;65.31
63019;BME280;49105;46.046;10.760;2023-03-31T10:44:36;95068.19;;;10.57;65.07
63019;BME280;49105;46.046;10.760;2023-03-31T10:49:42;95057.03;;;10.60;65.13
63019;BME280;49105;46.046;10.760;2023-03-31T10:52:20;95040.16;;;10.56;65.70
63019;BME280;49105;46.046;10.760;2023-03-31T10:54:57;95032.78;;;10.53;65.63
63019;BME280;49105;46.046;10.760;2023-03-31T10:57:39;95021.94;;;10.54;65.61
63019;BME280;49105;46.046;10.760;2023-03-31T11:11:59;94977.56;;;10.65;65.16
63019;BME280;49105;46.046;10.760;2023-03-31T11:20:40;94952.44;;;10.81;64.88
63019;BME280;49105;46.046;10.760;2023-03-31T11:31:37;94936.84;;;10.80;64.71
63019;BME280;49105;46.046;10.760;2023-03-31T11:34:14;94931.03;;;10.78;64.90
63019;BME280;49105;46.046;10.760;2023-03-31T11:42:52;94922.44;;;10.86;64.55
63019;BME280;49105;46.046;10.760;2023-03-31T11:45:40;94907.16;;;10.83;64.31
63019;BME280;49105;46.046;10.760;2023-03-31T11:50:51;94901.41;;;10.95;64.00
63019;BME280;49105;46.046;10.760;2023-03-31T11:53:19;94891.97;;;10.88;63.97
63019;BME280;49105;46.046;10.760;2023-03-31T11:55:57;94885.69;;;10.84;64.06
63019;BME280;49105;46.046;10.760;2023-03-31T11:58:34;94885.19;;;10.82;64.58
63019;BME280;49105;46.046;10.760;2023-03-31T12:06:29;94848.81;;;10.74;65.04
63019;BME280;49105;46.046;10.760;2023-03-31T12:09:07;94849.31;;;10.76;64.98
63019;BME280;49105;46.046;10.760;2023-03-31T12:14:32;94832.25;;;10.82;64.78
63019;BME280;49105;46.046;10.760;2023-03-31T12:17:12;94817.53;;;10.90;64.23
63019;BME280;49105;46.046;10.760;2023-03-31T12:19:51;94813.34;;;11.03;63.90
63019;BME280;49105;46.046;10.760;2023-03-31T12:22:28;94804.22;;;11.09;64.02
63019;BME280;49105;46.046;10.760;2023-03-31T12:25:01;94784.78;;;11.13;63.42
63019;BME280;49105;46.046;10.760;2023-03-31T12:27:38;94801.75;;;11.12;63.31
63019;BME280;49105;46.046;10.760;2023-03-31T12:30:09;94795.78;;;11.07;63.39
63019;BME280;49105;46.046;10.760;2023-03-31T12:32:46;94800.47;;;11.10;63.49
63019;BME280;49105;46.046;10.760;2023-03-31T12:35:23;94788.72;;;11.16;63.39
63019;BME280;49105;46.046;10.760;2023-03-31T12:40:42;94797.31;;;11.22;62.86
63019;BME280;49105;46.046;10.760;2023-03-31T12:59:43;94763.13;;;10.98;62.70
63019;BME280;49105;46.046;10.760;2023-03-31T13:02:24;94757.94;;;10.92;62.53
63019;BME280;49105;46.046;10.760;2023-03-31T13:04:56;94750.28;;;10.91;62.37
63019;BME280;49105;46.046;10.760;2023-03-31T13:13:15;94741.28;;;10.92;62.64
63019;BME280;49105;46.046;10.760;2023-03-31T13:19:03;94726.94;;;10.93;62.56
63019;BME280;49105;46.046;10.760;2023-03-31T13:21:56;94726.47;;;10.91;62.13
63019;BME280;49105;46.046;10.760;2023-03-31T13:24:22;94710.28;;;10.92;62.52
63019;BME280;49105;46.046;10.760;2023-03-31T13:26:57;94715.78;;;10.96;62.73
63019;BME280;49105;46.046;10.760;2023-03-31T13:29:41;94712.34;;;10.96;62.43
63019;BME280;49105;46.046;10.760;2023-03-31T13:32:23;94713.59;;;10.98;62.10
63019;BME280;49105;46.046;10.760;2023-03-31T13:35:13;94704.78;;;11.03;62.22
63019;BME280;49105;46.046;10.760;2023-03-31T13:51:58;94652.56;;;11.17;61.59
63019;BME280;49105;46.046;10.760;2023-03-31T14:03:20;94638.19;;;11.32;61.67
63019;BME280;49105;46.046;10.760;2023-03-31T14:11:22;94633.19;;;11.30;61.62
63019;BME280;49105;46.046;10.760;2023-03-31T14:16:24;94620.53;;;11.27;61.16
63019;BME280;49105;46.046;10.760;2023-03-31T14:19:02;94621.44;;;11.23;61.38
63019;BME280;49105;46.046;10.760;2023-03-31T14:24:42;94610.66;;;11.19;60.95
63019;BME280;49105;46.046;10.760;2023-03-31T14:30:10;94601.34;;;11.22;60.72
63019;BME280;49105;46.046;10.760;2023-03-31T14:33:11;94596.34;;;11.20;60.78
63019;BME280;49105;46.046;10.760;2023-03-31T14:35:54;94590.09;;;11.16;60.68
63019;BME280;49105;46.046;10.760;2023-03-31T14:38:23;94587.44;;;11.16;61.33
63019;BME280;49105;46.046;10.760;2023-03-31T14:40:55;94575.16;;;11.20;60.76
63019;BME280;49105;46.046;10.760;2023-03-31T14:43:47;94570.03;;;11.24;60.85
63019;BME280;49105;46.046;10.760;2023-03-31T14:46:20;94571.28;;;11.26;60.76
63019;BME280;49105;46.046;10.760;2023-03-31T14:48:48;94570.81;;;11.24;60.98
63019;BME280;49105;46.046;10.760;2023-03-31T14:51:26;94585.25;;;11.18;60.71
63019;BME280;49105;46.046;10.760;2023-03-31T14:54:26;94588.22;;;11.16;61.10
63019;BME280;49105;46.046;10.760;2023-03-31T14:56:59;94576.22;;;11.19;60.75
63019;BME280;49105;46.046;10.760;2023-03-31T14:59:33;94577.03;;;11.20;60.72
63019;BME280;49105;46.046;10.760;2023-03-31T15:02:14;94581.66;;;11.14;61.20
63019;BME280;49105;46.046;10.760;2023-03-31T15:04:41;94591.22;;;11.01;61.29
63019;BME280;49105;46.046;10.760;2023-03-31T15:07:11;94589.28;;;10.93;61.69
63019;BME280;49105;46.046;10.760;2023-03-31T15:09:43;94585.19;;;10.87;62.04
63019;BME280;49105;46.046;10.760;2023-03-31T15:12:13;94578.75;;;10.79;61.96
63019;BME280;49105;46.046;10.760;2023-03-31T15:14:48;94580.06;;;10.68;63.96
63019;BME280;49105;46.046;10.760;2023-03-31T15:17:29;94573.13;;;10.44;65.13
63019;BME280;49105;46.046;10.760;2023-03-31T15:19:59;94580.44;;;10.25;66.61
63019;BME280;49105;46.046;10.760;2023-03-31T15:22:27;94580.31;;;10.16;66.09
63019;BME280;49105;46.046;10.760;2023-03-31T15:24:53;94595.69;;;10.14;66.77
63019;BME280;49105;46.046;10.760;2023-03-31T15:27:33;94591.69;;;10.17;66.25
63019;BME280;49105;46.046;10.760;2023-03-31T15:30:05;94590.78;;;10.22;66.17
63019;BME280;49105;46.046;10.760;2023-03-31T15:32:38;94595.38;;;10.16;66.88
63019;BME280;49105;46.046;10.760;2023-03-31T15:35:29;94594.50;;;10.07;67.55
63019;BME280;49105;46.046;10.760;2023-03-31T15:37:57;94593.94;;;10.10;67.02
63019;BME280;49105;46.046;10.760;2023-03-31T15:40:31;94593.94;;;10.10;67.29
63019;BME280;49105;46.046;10.760;2023-03-31T15:45:57;94579.34;;;9.99;68.46
63019;BME280;49105;46.046;10.760;2023-03-31T15:51:29;94579.84;;;10.01;68.54
63019;BME280;49105;46.046;10.760;2023-03-31T15:53:58;94581.88;;;10.04;68.49
63019;BME280;49105;46.046;10.760;2023-03-31T15:56:34;94590.78;;;10.08;68.76
63019;BME280;49105;46.046;10.760;2023-03-31T15:59:01;94589.22;;;10.07;68.30
63019;BME280;49105;46.046;10.760;2023-03-31T16:01:42;94596.06;;;10.08;68.05
63019;BME280;49105;46.046;10.760;2023-03-31T16:04:10;94589.72;;;10.09;68.18
63019;BME280;49105;46.046;10.760;2023-03-31T16:06:46;94590.09;;;10.16;68.57
63019;BME280;49105;46.046;10.760;2023-03-31T16:09:20;94572.66;;;10.15;68.42
63019;BME280;49105;46.046;10.760;2023-03-31T16:11:51;94572.38;;;10.03;69.88
63019;BME280;49105;46.046;10.760;2023-03-31T16:17:01;94575.91;;;9.84;69.54
63019;BME280;49105;46.046;10.760;2023-03-31T16:19:48;94589.13;;;9.84;69.73
63019;BME280;49105;46.046;10.760;2023-03-31T16:22:21;94581.47;;;9.83;70.28
63019;BME280;49105;46.046;10.760;2023-03-31T16:24:54;94586.88;;;9.78;70.80
63019;BME280;49105;46.046;10.760;2023-03-31T16:27:23;94598.97;;;9.65;71.21
63019;BME280;49105;46.046;10.760;2023-03-31T16:33:13;94604.56;;;9.63;71.73
63019;BME280;49105;46.046;10.760;2023-03-31T16:35:42;94592.72;;;9.61;71.94
63019;BME280;49105;46.046;10.760;2023-03-31T16:38:09;94554.19;;;9.60;72.21
63019;BME280;49105;46.046;10.760;2023-03-31T16:40:40;94540.66;;;9.61;72.60
63019;BME280;49105;46.046;10.760;2023-03-31T16:43:20;94533.63;;;9.57;72.90
63019;BME280;49105;46.046;10.760;2023-03-31T16:45:55;94535.06;;;9.49;73.89
63019;BME280;49105;46.046;10.760;2023-03-31T16:48:23;94536.16;;;9.48;73.92
63019;BME280;49105;46.046;10.760;2023-03-31T16:50:56;94534.28;;;9.49;74.70
63019;BME280;49105;46.046;10.760;2023-03-31T16:53:33;94543.19;;;9.53;74.15